Time;durP1;ratioP1;P1;durP2;ratioP2;P2;SDS_P1;SDS_P2;PMS_P1;PMS_P2;Temp;Humidity;BMP_temperature;BMP_pressure;BME280_temperature;BME280_humidity;BME280_pressure;Samples;Min_cycle;Max_cycle;Signal;HPM_P1;HPM_P2
2022/03/27 00:00:41;;;;;;;21.02;7.15;;;;;;;2.47;100.00;103065.06;5050164;28;20085;-76
2022/03/27 00:03:07;;;;;;;18.27;6.25;;;;;;;2.46;100.00;103067.69;5057932;28;20032;-76
2022/03/27 00:05:33;;;;;;;22.23;6.55;;;;;;;2.45;100.00;103064.25;5047290;28;20044;-77
2022/03/27 00:07:59;;;;;;;20.08;7.10;;;;;;;2.49;100.00;103076.25;5049408;28;20595;-76
2022/03/27 00:10:25;;;;;;;27.58;7.38;;;;;;;2.46;100.00;103071.13;5058863;28;20155;-76
2022/03/27 00:12:50;;;;;;;22.35;7.20;;;;;;;2.41;100.00;103067.81;5042542;28;20034;-76
2022/03/27 00:15:17;;;;;;;23.73;7.00;;;;;;;2.41;100.00;103070.41;5032399;28;20516;-76
2022/03/27 00:17:43;;;;;;;20.13;7.43;;;;;;;2.41;100.00;103069.53;5033143;28;20044;-76
2022/03/27 00:20:12;;;;;;;17.05;6.97;;;;;;;2.41;100.00;103067.81;5060015;28;20044;-77
2022/03/27 00:22:39;;;;;;;27.42;8.05;;;;;;;2.44;100.00;103062.53;5032311;28;20048;-75
2022/03/27 00:25:06;;;;;;;24.35;7.80;;;;;;;2.48;100.00;103074.53;5034169;28;20037;-76
2022/03/27 00:27:33;;;;;;;23.02;8.23;;;;;;;2.48;100.00;103073.69;5040587;28;20029;-74
2022/03/27 00:29:59;;;;;;;23.55;7.68;;;;;;;2.46;100.00;103072.88;5026735;28;20545;-76
2022/03/27 00:32:24;;;;;;;18.30;7.57;;;;;;;2.40;100.00;103076.44;5062871;28;20120;-77
2022/03/27 00:34:51;;;;;;;18.33;7.30;;;;;;;2.37;100.00;103073.94;5039407;28;20078;-76
2022/03/27 00:37:17;;;;;;;21.20;8.05;;;;;;;2.30;100.00;103072.38;5030216;28;20090;-76
2022/03/27 00:39:43;;;;;;;18.08;8.50;;;;;;;2.38;100.00;103061.84;5054219;28;20032;-76
2022/03/27 00:42:09;;;;;;;22.42;8.30;;;;;;;2.43;100.00;103067.75;5062719;28;20225;-77
2022/03/27 00:44:36;;;;;;;17.58;7.70;;;;;;;2.32;100.00;103065.44;5035196;28;20026;-77
2022/03/27 00:47:02;;;;;;;16.98;8.18;;;;;;;2.26;100.00;103068.16;5052025;28;20032;-76
2022/03/27 00:49:28;;;;;;;27.35;10.13;;;;;;;2.23;100.00;103065.66;5048984;28;20040;-74
2022/03/27 00:51:54;;;;;;;21.95;9.00;;;;;;;2.16;100.00;103062.31;5066240;28;20474;-75
2022/03/27 00:54:21;;;;;;;21.63;8.77;;;;;;;2.08;100.00;103054.75;5042185;28;20044;-76
2022/03/27 00:56:46;;;;;;;19.85;8.48;;;;;;;2.04;100.00;103057.44;5061167;28;20036;-76
2022/03/27 00:59:12;;;;;;;26.25;10.00;;;;;;;1.94;100.00;103052.47;5040127;28;20757;-75
2022/03/27 01:01:39;;;;;;;25.63;9.98;;;;;;;1.87;100.00;103050.91;5021690;28;20128;-76
2022/03/27 01:04:06;;;;;;;35.22;10.63;;;;;;;1.84;100.00;103050.09;5055794;28;20063;-76
2022/03/27 01:06:39;;;;;;;26.40;11.13;;;;;;;1.78;100.00;103045.91;5064773;28;20055;-78
2022/03/27 01:11:54;;;;;;;23.27;9.65;;;;;;;1.72;100.00;103046.06;5061735;28;20032;-76
2022/03/27 01:14:31;;;;;;;25.80;11.07;;;;;;;1.70;100.00;103043.50;5065704;28;20032;-76
2022/03/27 01:17:09;;;;;;;25.73;9.85;;;;;;;1.69;100.00;103044.38;5021511;28;20051;-76
2022/03/27 01:19:40;;;;;;;23.80;9.55;;;;;;;1.70;100.00;103043.50;5054765;28;20029;-75
2022/03/27 01:22:05;;;;;;;24.63;10.60;;;;;;;1.76;100.00;103047.69;5030773;28;20037;-76
2022/03/27 01:24:31;;;;;;;21.00;9.52;;;;;;;1.77;100.00;103036.44;5049244;28;20033;-74
2022/03/27 01:26:57;;;;;;;31.58;12.15;;;;;;;1.80;100.00;103051.06;5065373;28;20028;-76
2022/03/27 01:29:23;;;;;;;25.95;10.50;;;;;;;1.77;100.00;103041.63;5024822;28;20037;-76
2022/03/27 01:31:51;;;;;;;31.92;10.70;;;;;;;1.74;100.00;103041.69;5024949;28;20683;-77
2022/03/27 01:34:18;;;;;;;24.13;10.00;;;;;;;1.74;100.00;103039.94;5058282;28;20029;-77
2022/03/27 01:36:43;;;;;;;31.85;11.43;;;;;;;1.72;100.00;103038.28;5037408;28;20025;-76
2022/03/27 01:39:11;;;;;;;24.88;10.43;;;;;;;1.69;100.00;103040.94;5032604;28;20064;-76
2022/03/27 01:41:38;;;;;;;33.05;11.20;;;;;;;1.68;100.00;103044.44;5041999;28;20078;-76
2022/03/27 01:44:17;;;;;;;27.55;11.43;;;;;;;1.67;100.00;103040.97;5025329;28;20823;-76
2022/03/27 01:46:44;;;;;;;27.15;11.65;;;;;;;1.64;100.00;103046.22;5044966;28;20029;-76
2022/03/27 01:49:12;;;;;;;25.23;9.98;;;;;;;1.61;100.00;103046.28;5068573;28;20093;-76
2022/03/27 01:51:39;;;;;;;20.92;10.10;;;;;;;1.64;100.00;103041.03;5058741;28;20118;-76
2022/03/27 01:54:06;;;;;;;43.22;14.25;;;;;;;1.63;100.00;103043.66;5050350;28;20174;-75
2022/03/27 01:56:32;;;;;;;41.10;14.50;;;;;;;1.59;100.00;103049.78;5051221;28;20447;-76
2022/03/27 01:58:59;;;;;;;45.90;18.17;;;;;;;1.61;100.00;103056.63;5021654;28;20067;-76
2022/03/27 02:01:25;;;;;;;50.53;17.95;;;;;;;1.66;100.00;103041.03;5068548;28;20767;-76
2022/03/27 02:03:54;;;;;;;70.03;21.88;;;;;;;1.65;100.00;103047.91;5030932;28;20044;-76
2022/03/27 02:06:19;;;;;;;80.65;27.05;;;;;;;1.69;100.00;103057.31;5034527;28;20072;-76
2022/03/27 02:08:45;;;;;;;82.95;27.42;;;;;;;1.69;100.00;103057.31;5045773;28;20071;-76
2022/03/27 02:11:13;;;;;;;98.15;26.30;;;;;;;1.71;100.00;103057.28;5049298;28;20036;-76
2022/03/27 02:13:38;;;;;;;113.22;30.85;;;;;;;1.77;100.00;103056.28;5058609;28;20159;-76
2022/03/27 02:16:04;;;;;;;91.00;31.40;;;;;;;1.80;100.00;103057.09;5033412;28;20123;-75
2022/03/27 02:18:31;;;;;;;96.75;33.28;;;;;;;1.87;100.00;103055.22;5045679;28;20044;-76
2022/03/27 02:21:00;;;;;;;103.45;34.53;;;;;;;1.93;100.00;103068.03;5029820;28;20037;-75
2022/03/27 02:23:26;;;;;;;119.45;33.63;;;;;;;1.95;100.00;103061.91;5053378;28;20059;-78
2022/03/27 02:25:53;;;;;;;112.47;35.88;;;;;;;2.04;100.00;103062.63;5040788;28;20029;-76
2022/03/27 02:28:19;;;;;;;122.43;37.78;;;;;;;2.23;100.00;103063.06;5026770;28;20108;-76
2022/03/27 02:30:47;;;;;;;139.75;36.80;;;;;;;2.21;100.00;103068.25;5062240;28;20444;-76
2022/03/27 02:33:12;;;;;;;121.35;37.95;;;;;;;2.23;100.00;103063.91;5046080;28;20037;-78
2022/03/27 02:35:38;;;;;;;130.13;39.47;;;;;;;2.28;100.00;103069.84;5054022;28;20025;-78
2022/03/27 02:38:05;;;;;;;129.43;41.13;;;;;;;2.32;100.00;103062.84;5058952;28;20436;-76
2022/03/27 02:40:35;;;;;;;92.85;35.00;;;;;;;2.39;100.00;103063.53;5037762;28;20078;-76
2022/03/27 02:43:01;;;;;;;98.75;35.65;;;;;;;2.50;100.00;103067.56;5045192;28;20037;-76
2022/03/27 02:45:28;;;;;;;95.53;37.28;;;;;;;2.51;100.00;103060.66;5069198;28;20036;-76
2022/03/27 02:47:54;;;;;;;95.72;33.00;;;;;;;2.50;100.00;103054.59;5028715;28;20832;-76
2022/03/27 02:50:20;;;;;;;79.10;30.92;;;;;;;2.55;100.00;103057.09;5049025;28;20333;-76
2022/03/27 02:52:46;;;;;;;82.47;30.63;;;;;;;2.53;100.00;103057.13;5060789;28;20489;-76
2022/03/27 02:55:12;;;;;;;77.55;34.15;;;;;;;2.56;100.00;103066.56;5063649;28;20147;-76
2022/03/27 02:57:38;;;;;;;69.45;29.52;;;;;;;2.53;100.00;103066.66;5045696;28;20032;-77
2022/03/27 03:00:08;;;;;;;73.22;29.85;;;;;;;2.57;100.00;103057.91;5033032;28;20035;-77
2022/03/27 03:02:35;;;;;;;80.22;27.52;;;;;;;2.60;100.00;103056.97;5037995;28;20035;-77
2022/03/27 03:05:01;;;;;;;49.95;26.50;;;;;;;2.49;100.00;103055.50;5035323;28;20056;-77
2022/03/27 03:07:27;;;;;;;90.80;28.88;;;;;;;2.43;100.00;103057.38;5075047;28;20041;-78
2022/03/27 03:09:54;;;;;;;74.07;30.10;;;;;;;2.39;100.00;103059.19;5048076;28;20057;-77
2022/03/27 03:12:20;;;;;;;69.15;31.23;;;;;;;2.40;100.00;103047.13;5038545;28;20036;-78
2022/03/27 03:14:46;;;;;;;102.93;33.72;;;;;;;2.48;100.00;103048.63;5038510;28;20032;-77
2022/03/27 03:17:12;;;;;;;72.88;30.38;;;;;;;2.50;100.00;103054.59;5065008;28;20047;-77
2022/03/27 03:19:38;;;;;;;92.45;29.30;;;;;;;2.52;100.00;103054.56;5032521;28;20032;-77
2022/03/27 03:22:07;;;;;;;86.18;28.98;;;;;;;2.48;100.00;103052.94;5073186;28;20608;-76
2022/03/27 03:24:34;;;;;;;67.55;27.77;;;;;;;2.52;100.00;103054.56;5040217;28;20036;-77
2022/03/27 03:27:00;;;;;;;74.00;28.95;;;;;;;2.54;100.00;103050.19;5034082;28;20044;-76
2022/03/27 03:29:26;;;;;;;70.50;28.85;;;;;;;2.64;100.00;103040.50;5050516;28;20494;-75
2022/03/27 03:31:52;;;;;;;77.28;28.05;;;;;;;2.61;100.00;103041.41;5061031;28;20063;-77
2022/03/27 03:34:17;;;;;;;137.05;30.55;;;;;;;2.56;100.00;103039.81;5052095;28;20540;-77
2022/03/27 03:36:44;;;;;;;107.85;31.08;;;;;;;2.55;100.00;103033.78;5069763;28;20033;-77
2022/03/27 03:39:10;;;;;;;81.78;30.95;;;;;;;2.74;100.00;103031.56;5028419;28;20055;-77
2022/03/27 03:41:36;;;;;;;76.38;34.08;;;;;;;2.75;100.00;103019.47;5052947;28;20050;-77
2022/03/27 03:44:02;;;;;;;116.10;43.40;;;;;;;2.79;100.00;103032.31;5036136;28;20159;-77
2022/03/27 03:46:28;;;;;;;132.93;35.42;;;;;;;2.85;100.00;103020.94;5052626;28;20489;-76
2022/03/27 03:48:54;;;;;;;105.57;33.95;;;;;;;2.83;100.00;103018.38;5068911;28;20557;-77
2022/03/27 03:51:19;;;;;;;102.95;35.15;;;;;;;2.84;100.00;103019.22;5051241;28;20075;-78
2022/03/27 03:53:45;;;;;;;151.82;37.70;;;;;;;2.77;100.00;103015.97;5046815;28;20112;-78
2022/03/27 03:56:14;;;;;;;195.82;37.58;;;;;;;2.68;100.00;103011.00;5060618;28;20107;-77
2022/03/27 03:58:40;;;;;;;144.90;36.47;;;;;;;2.63;100.00;103008.53;5066908;28;20048;-76
2022/03/27 04:01:06;;;;;;;247.50;36.50;;;;;;;2.61;100.00;103017.22;5026674;28;20032;-76
2022/03/27 04:03:31;;;;;;;109.47;32.42;;;;;;;2.61;100.00;103027.59;5067551;28;20042;-75
2022/03/27 04:05:57;;;;;;;130.02;34.42;;;;;;;2.48;100.00;103027.03;5027499;28;20039;-76
2022/03/27 04:08:23;;;;;;;121.10;33.92;;;;;;;2.50;100.00;103020.94;5058074;28;20048;-76
2022/03/27 04:10:49;;;;;;;107.97;31.25;;;;;;;2.49;100.00;103029.59;5050110;28;20281;-76
2022/03/27 04:13:15;;;;;;;79.13;29.48;;;;;;;2.40;100.00;103031.56;5066611;28;20036;-76
2022/03/27 04:15:41;;;;;;;95.15;28.70;;;;;;;2.34;100.00;103038.59;5033639;28;20066;-75
2022/03/27 04:18:07;;;;;;;86.13;30.13;;;;;;;2.27;100.00;103028.44;5026636;28;20064;-76
2022/03/27 04:20:34;;;;;;;111.07;25.30;;;;;;;2.33;100.00;103026.53;5050393;28;20066;-76
2022/03/27 04:23:01;;;;;;;78.22;24.77;;;;;;;2.26;100.00;103037.94;5050561;28;20505;-75
2022/03/27 04:25:28;;;;;;;48.95;25.50;;;;;;;2.19;100.00;103043.31;5065718;28;20033;-76
2022/03/27 04:27:53;;;;;;;66.90;28.98;;;;;;;2.19;100.00;103045.91;5031399;28;20032;-76
2022/03/27 04:30:20;;;;;;;79.65;28.13;;;;;;;2.19;100.00;103044.16;5048589;28;20036;-76
2022/03/27 04:32:47;;;;;;;69.53;31.33;;;;;;;2.25;100.00;103056.09;5037522;28;20025;-74
2022/03/27 04:35:14;;;;;;;77.78;33.72;;;;;;;2.29;100.00;103055.13;5050383;28;20028;-76
2022/03/27 04:37:41;;;;;;;98.82;34.15;;;;;;;2.31;100.00;103049.03;5046014;28;20082;-76
2022/03/27 04:40:08;;;;;;;82.53;28.42;;;;;;;2.39;100.00;103045.41;5062519;28;20043;-76
2022/03/27 04:42:33;;;;;;;61.35;29.38;;;;;;;2.35;100.00;103047.22;5060642;28;20039;-76
2022/03/27 04:44:59;;;;;;;187.40;33.58;;;;;;;2.34;100.00;103051.56;5031307;28;20126;-76
2022/03/27 04:47:25;;;;;;;109.63;30.55;;;;;;;2.26;100.00;103050.00;5043266;28;20041;-74
2022/03/27 04:49:51;;;;;;;77.18;27.25;;;;;;;2.24;100.00;103064.75;5044947;28;20683;-76
2022/03/27 04:52:16;;;;;;;91.25;29.00;;;;;;;2.31;100.00;103061.97;5033056;28;20116;-76
2022/03/27 04:54:42;;;;;;;64.22;26.52;;;;;;;2.38;100.00;103061.84;5054121;28;20036;-76
2022/03/27 04:57:11;;;;;;;103.63;29.70;;;;;;;2.30;100.00;103054.25;5042204;28;20462;-76
2022/03/27 04:59:36;;;;;;;72.80;27.67;;;;;;;2.31;100.00;103049.03;5033710;28;20047;-76
2022/03/27 05:02:02;;;;;;;92.03;26.85;;;;;;;2.41;100.00;103056.56;5050064;28;20037;-76
2022/03/27 05:04:28;;;;;;;69.07;25.65;;;;;;;2.42;100.00;103053.09;5049239;28;20037;-74
2022/03/27 05:06:54;;;;;;;134.55;26.88;;;;;;;2.29;100.00;103053.38;5032906;28;20044;-76
2022/03/27 05:09:19;;;;;;;74.75;26.20;;;;;;;2.34;100.00;103050.72;5042066;28;20040;-77
2022/03/27 05:11:47;;;;;;;121.35;27.85;;;;;;;2.16;100.00;103054.56;5027912;28;20098;-76
2022/03/27 05:14:13;;;;;;;92.70;28.45;;;;;;;2.12;100.00;103064.13;5049913;28;20540;-75
2022/03/27 05:16:39;;;;;;;243.00;32.40;;;;;;;2.06;100.00;103059.09;5050395;28;20028;-74
2022/03/27 05:19:04;;;;;;;77.10;29.48;;;;;;;2.15;100.00;103063.22;5035913;28;20656;-75
2022/03/27 05:21:31;;;;;;;113.38;29.58;;;;;;;2.25;100.00;103058.69;5063261;28;20516;-76
2022/03/27 05:23:58;;;;;;;149.82;31.77;;;;;;;2.24;100.00;103064.75;5064319;28;20040;-74
2022/03/27 05:26:25;;;;;;;89.43;31.67;;;;;;;2.15;100.00;103065.81;5061934;28;20123;-76
2022/03/27 05:28:51;;;;;;;63.80;31.70;;;;;;;2.16;100.00;103077.88;5037710;28;20047;-76
2022/03/27 05:31:17;;;;;;;140.80;32.60;;;;;;;2.20;100.00;103068.28;5071530;28;20028;-76
2022/03/27 05:33:43;;;;;;;158.93;32.15;;;;;;;2.17;100.00;103066.63;5066252;28;20486;-76
2022/03/27 05:36:09;;;;;;;91.50;32.08;;;;;;;2.20;100.00;103066.53;5035740;28;20490;-76
2022/03/27 05:38:37;;;;;;;148.05;32.90;;;;;;;2.17;100.00;103068.34;5018128;28;20490;-76
2022/03/27 05:41:03;;;;;;;99.07;32.78;;;;;;;2.09;100.00;103072.00;5027111;28;20040;-76
2022/03/27 05:43:29;;;;;;;185.95;35.88;;;;;;;2.19;100.00;103072.63;5068257;28;20048;-76
2022/03/27 05:45:55;;;;;;;228.60;34.72;;;;;;;2.28;100.00;103075.00;5022982;28;20033;-76
2022/03/27 05:48:21;;;;;;;161.40;31.98;;;;;;;2.25;100.00;103085.44;5035549;28;20115;-75
2022/03/27 05:50:46;;;;;;;118.63;33.67;;;;;;;2.27;100.00;103083.66;5067329;28;20570;-76
2022/03/27 05:53:12;;;;;;;129.60;33.47;;;;;;;2.28;100.00;103067.25;5037797;28;20029;-77
2022/03/27 05:55:38;;;;;;;85.70;33.08;;;;;;;2.45;100.00;103077.22;5047402;28;20095;-76
2022/03/27 05:58:03;;;;;;;121.63;32.63;;;;;;;2.39;100.00;103076.47;5027880;28;20076;-77
2022/03/27 06:00:29;;;;;;;96.05;33.47;;;;;;;2.31;100.00;103077.50;5037151;28;20044;-76
2022/03/27 06:02:55;;;;;;;93.25;35.33;;;;;;;2.43;100.00;103075.50;5032775;28;20483;-77
2022/03/27 06:05:24;;;;;;;70.65;33.90;;;;;;;2.50;100.00;103082.25;5028722;28;20130;-77
2022/03/27 06:07:55;;;;;;;103.47;33.55;;;;;;;2.51;100.00;103068.44;5053102;28;20049;-76
2022/03/27 06:10:40;;;;;;;93.65;34.17;;;;;;;2.52;100.00;103068.41;5036739;28;20051;-76
2022/03/27 06:13:06;;;;;;;103.53;33.42;;;;;;;2.56;100.00;103069.16;5033893;28;20120;-76
2022/03/27 06:15:32;;;;;;;195.63;36.08;;;;;;;2.43;100.00;103071.22;5053697;28;20096;-74
2022/03/27 06:17:59;;;;;;;301.08;38.67;;;;;;;2.34;100.00;103087.81;5069879;28;20460;-74
2022/03/27 06:20:30;;;;;;;120.65;32.90;;;;;;;2.32;100.00;103083.56;5029671;28;20032;-76
2022/03/27 06:22:56;;;;;;;229.25;38.92;;;;;;;2.36;100.00;103074.81;5053456;28;20481;-77
2022/03/27 06:25:25;;;;;;;138.20;36.50;;;;;;;2.39;100.00;103079.91;5070962;28;20082;-78
2022/03/27 06:27:51;;;;;;;316.67;39.40;;;;;;;2.36;100.00;103082.59;5063901;28;20068;-75
2022/03/27 06:30:18;;;;;;;120.05;36.35;;;;;;;2.41;100.00;103085.06;5035694;28;20039;-76
2022/03/27 06:32:46;;;;;;;72.75;36.70;;;;;;;2.42;100.00;103079.00;5045425;28;20028;-76
2022/03/27 06:35:13;;;;;;;83.55;35.63;;;;;;;2.82;100.00;103086.66;5036006;28;20122;-76
2022/03/27 06:37:39;;;;;;;110.05;34.03;;;;;;;2.88;100.00;103090.81;5032066;28;20791;-76
2022/03/27 06:40:07;;;;;;;85.32;26.75;;;;;;;2.88;100.00;103093.41;5036295;28;20028;-77
2022/03/27 06:42:32;;;;;;;44.05;22.95;;;;;;;2.89;100.00;103092.53;5051658;28;20036;-77
2022/03/27 06:44:59;;;;;;;77.13;20.30;;;;;;;2.89;100.00;103089.94;5029885;28;20036;-77
2022/03/27 06:47:26;;;;;;;67.85;17.00;;;;;;;2.89;100.00;103095.97;5035802;28;20119;-77
2022/03/27 06:49:54;;;;;;;69.03;17.33;;;;;;;2.93;100.00;103097.59;5063786;28;20040;-76
2022/03/27 06:52:20;;;;;;;27.98;16.23;;;;;;;2.92;100.00;103089.88;5024459;28;20033;-75
2022/03/27 06:54:46;;;;;;;126.97;20.90;;;;;;;2.89;100.00;103095.97;5034411;28;20040;-76
2022/03/27 06:57:13;;;;;;;32.40;19.20;;;;;;;3.01;100.00;103097.41;5050732;28;20059;-76
2022/03/27 07:05:09;;;;;;;56.05;22.02;;;;;;;3.21;100.00;103109.00;5043985;28;20053;-75
2022/03/27 07:07:36;;;;;;;87.80;22.45;;;;;;;3.20;100.00;103112.47;5040157;28;20037;-74
2022/03/27 07:10:03;;;;;;;40.40;20.13;;;;;;;3.19;100.00;103114.22;5038765;28;20037;-76
2022/03/27 07:12:29;;;;;;;61.25;21.70;;;;;;;3.24;100.00;103125.34;5038559;28;20070;-76
2022/03/27 07:14:55;;;;;;;51.38;21.50;;;;;;;3.23;100.00;103122.78;5044292;28;20032;-75
2022/03/27 07:17:21;;;;;;;50.72;21.63;;;;;;;3.39;100.00;103121.50;5032904;28;20874;-75
2022/03/27 07:19:47;;;;;;;77.75;19.40;;;;;;;3.34;100.00;103128.53;5059461;28;20021;-74
2022/03/27 07:22:14;;;;;;;50.50;20.98;;;;;;;3.34;100.00;103133.72;5049835;28;20068;-76
2022/03/27 07:24:40;;;;;;;76.65;18.52;;;;;;;3.52;100.00;103129.78;5066008;28;20171;-76
2022/03/27 07:27:06;;;;;;;38.75;17.08;;;;;;;3.61;100.00;103149.44;5043522;28;20121;-74
2022/03/27 07:29:32;;;;;;;38.15;16.70;;;;;;;3.62;100.00;103143.38;5039384;28;20028;-75
2022/03/27 07:31:58;;;;;;;47.15;20.60;;;;;;;3.57;100.00;103151.25;5033614;28;20067;-74
2022/03/27 07:34:24;;;;;;;62.80;23.17;;;;;;;3.56;100.00;103152.19;5032736;28;20036;-75
2022/03/27 07:36:50;;;;;;;62.10;20.83;;;;;;;3.49;100.00;103151.47;5050431;28;20538;-75
2022/03/27 07:39:15;;;;;;;70.03;26.67;;;;;;;3.61;100.00;103144.25;5049408;28;20036;-75
2022/03/27 07:41:41;;;;;;;77.47;30.55;;;;;;;3.64;100.00;103133.78;5064427;28;20067;-76
2022/03/27 07:44:07;;;;;;;73.28;28.35;;;;;;;3.92;100.00;103136.47;5036332;28;20060;-74
2022/03/27 07:46:33;;;;;;;70.43;28.75;;;;;;;3.87;100.00;103133.97;5027021;28;20064;-76
2022/03/27 07:48:59;;;;;;;71.50;29.33;;;;;;;4.02;100.00;103126.66;5027432;28;20439;-74
2022/03/27 07:51:25;;;;;;;73.05;31.00;;;;;;;4.32;100.00;103127.47;5025684;28;20176;-75
2022/03/27 07:53:51;;;;;;;80.82;30.77;;;;;;;4.34;100.00;103122.22;5033056;28;20095;-76
2022/03/27 07:56:18;;;;;;;82.25;33.28;;;;;;;4.27;100.00;103119.78;5041842;28;20029;-75
2022/03/27 07:58:44;;;;;;;82.47;32.78;;;;;;;4.45;100.00;103130.53;5043642;28;20048;-75
2022/03/27 08:01:12;;;;;;;82.22;33.25;;;;;;;4.35;100.00;103116.09;5025894;28;20044;-76
2022/03/27 08:03:39;;;;;;;89.82;34.13;;;;;;;4.44;100.00;103114.06;5025904;28;20472;-73
2022/03/27 08:06:06;;;;;;;99.05;36.13;;;;;;;4.52;100.00;103120.78;5033533;28;20044;-77
2022/03/27 08:08:32;;;;;;;87.18;34.67;;;;;;;4.45;100.00;103112.34;5037013;28;20135;-74
2022/03/27 08:10:58;;;;;;;91.03;36.95;;;;;;;4.49;100.00;103117.38;5067229;28;20703;-75
2022/03/27 08:13:23;;;;;;;99.50;38.67;;;;;;;4.45;100.00;103112.34;5049145;28;20036;-75
2022/03/27 08:15:49;;;;;;;93.35;36.85;;;;;;;4.49;100.00;103116.53;5043273;28;20036;-75
2022/03/27 08:18:15;;;;;;;91.85;38.60;;;;;;;4.55;100.00;103120.69;5041925;28;20117;-74
2022/03/27 08:20:41;;;;;;;102.18;39.03;;;;;;;4.53;100.00;103119.91;5024341;28;20044;-76
2022/03/27 08:23:10;;;;;;;88.78;35.88;;;;;;;4.78;100.00;103118.19;5048717;28;20056;-75
2022/03/27 08:28:21;;;;;;;83.78;33.45;;;;;;;4.97;100.00;103115.84;5051184;28;20379;-76
2022/03/27 08:30:48;;;;;;;82.78;33.22;;;;;;;5.01;100.00;103120.03;5028666;28;20039;-76
2022/03/27 08:33:15;;;;;;;87.47;33.72;;;;;;;5.02;100.00;103120.88;5040935;28;20036;-75
2022/03/27 08:35:42;;;;;;;82.32;34.53;;;;;;;5.13;100.00;103125.72;5028282;28;20024;-75
2022/03/27 08:38:09;;;;;;;79.85;35.78;;;;;;;5.17;100.00;103130.75;5029140;28;20440;-75
2022/03/27 08:40:38;;;;;;;77.85;31.60;;;;;;;5.35;100.00;103125.81;5068397;28;20083;-75
2022/03/27 08:43:15;;;;;;;85.38;33.10;;;;;;;5.49;100.00;103123.56;5047359;28;20033;-75
2022/03/27 08:45:43;;;;;;;73.57;31.42;;;;;;;5.67;100.00;103122.06;5047181;28;20028;-75
2022/03/27 08:48:10;;;;;;;64.05;28.23;;;;;;;5.78;100.00;103130.34;5019396;28;20041;-75
2022/03/27 08:51:17;;;;;;;65.07;28.67;;;;;;;6.01;100.00;103126.88;5061954;28;20029;-74
2022/03/27 08:54:04;;;;;;;67.38;27.20;;;;;;;5.83;100.00;103122.34;5045954;28;20043;-74
2022/03/27 08:56:32;;;;;;;63.30;24.48;;;;;;;5.72;100.00;103124.50;5068516;28;20047;-75
2022/03/27 08:59:01;;;;;;;73.95;27.85;;;;;;;5.82;100.00;103129.31;5047209;28;20036;-74
2022/03/27 09:01:28;;;;;;;65.97;25.85;;;;;;;6.01;100.00;103126.06;5051206;28;20139;-75
2022/03/27 09:03:54;;;;;;;58.70;25.23;;;;;;;6.07;100.00;103123.19;5062593;28;20044;-75
2022/03/27 09:06:21;;;;;;;68.85;29.40;;;;;;;6.18;100.00;103121.03;5068297;28;20036;-74
2022/03/27 09:08:49;;;;;;;60.42;30.95;;;;;;;6.19;100.00;103127.94;5058867;28;20039;-74
2022/03/27 09:11:16;;;;;;;69.10;30.48;;;;;;;6.24;100.00;103123.38;5063774;28;20119;-75
2022/03/27 09:13:46;;;;;;;68.90;31.73;;;;;;;6.14;100.00;103135.09;5048904;28;20036;-76
2022/03/27 09:16:11;;;;;;;74.25;32.53;;;;;;;6.24;100.00;103128.59;5061393;28;20041;-74
2022/03/27 09:18:48;;;;;;;69.05;29.65;;;;;;;6.04;100.00;103139.78;5057416;28;20025;-76
2022/03/27 09:21:15;;;;;;;74.20;30.73;;;;;;;5.95;100.00;103141.84;5031684;28;20539;-76
2022/03/27 09:23:40;;;;;;;62.88;29.60;;;;;;;6.03;100.00;103139.88;5056160;28;20043;-77
2022/03/27 09:26:16;;;;;;;70.75;31.30;;;;;;;6.27;100.00;103129.38;5031238;28;20040;-74
2022/03/27 09:28:47;;;;;;;69.18;32.65;;;;;;;6.43;100.00;103128.72;5049652;28;20028;-74
2022/03/27 09:31:17;;;;;;;73.40;33.83;;;;;;;6.56;100.00;103123.88;5044547;28;20506;-75
2022/03/27 09:34:12;;;;;;;74.40;33.40;;;;;;;6.88;100.00;103119.09;5060157;28;20032;-74
2022/03/27 09:36:42;;;;;;;66.20;31.65;;;;;;;6.82;100.00;103107.16;5042408;28;20064;-73
2022/03/27 09:39:13;;;;;;;78.50;33.40;;;;;;;6.83;100.00;103119.28;5036223;28;20029;-74
2022/03/27 09:41:54;;;;;;;67.95;30.55;;;;;;;6.78;100.00;103104.72;5052939;28;20037;-75
2022/03/27 09:44:30;;;;;;;71.28;30.77;;;;;;;7.00;100.00;103107.28;5047218;28;20037;-75
2022/03/27 09:47:00;;;;;;;61.53;29.15;;;;;;;7.22;100.00;103105.44;5068186;28;20032;-73
2022/03/27 09:49:32;;;;;;;66.40;29.75;;;;;;;7.48;100.00;103105.19;5069603;28;20028;-74
2022/03/27 09:52:01;;;;;;;71.25;29.58;;;;;;;7.64;100.00;103102.78;5034283;28;20064;-75
2022/03/27 09:54:42;;;;;;;73.55;27.52;;;;;;;7.85;100.00;103104.38;5067123;28;20036;-74
2022/03/27 09:57:30;;;;;;;50.95;22.55;;;;;;;7.92;100.00;103103.19;5076633;28;20048;-74
2022/03/27 10:00:12;;;;;;;40.17;13.88;;;;;;;8.29;100.00;103098.00;5054137;28;20040;-76
2022/03/27 10:02:40;;;;;;;40.72;13.20;;;;;;;8.27;100.00;103095.47;5069826;28;20112;-75
2022/03/27 10:05:10;;;;;;;37.25;13.82;;;;;;;8.30;100.00;103092.69;5050964;28;20032;-75
2022/03/27 10:07:53;;;;;;;32.22;14.30;;;;;;;8.64;100.00;103101.53;5053956;28;20474;-75
2022/03/27 10:10:23;;;;;;;36.35;14.18;;;;;;;8.92;100.00;103102.75;5031000;28;20036;-75
2022/03/27 10:12:50;;;;;;;33.05;14.77;;;;;;;8.95;100.00;103092.16;5046502;28;20037;-74
2022/03/27 10:15:24;;;;;;;34.63;14.15;;;;;;;9.18;100.00;103083.09;5056669;28;20062;-75
2022/03/27 10:18:25;;;;;;;26.45;11.43;;;;;;;9.13;100.00;103080.69;5049733;28;20037;-76
2022/03/27 10:20:57;;;;;;;25.38;11.88;;;;;;;9.21;100.00;103085.56;5042898;28;20047;-77
2022/03/27 10:23:26;;;;;;;27.75;12.25;;;;;;;9.28;100.00;103084.28;5068213;28;20036;-75
2022/03/27 10:25:55;;;;;;;31.20;12.02;;;;;;;9.52;100.00;103076.06;5074088;28;20039;-76
2022/03/27 10:28:22;;;;;;;27.67;12.43;;;;;;;9.73;100.00;103085.38;5072092;28;20044;-76
2022/03/27 10:30:52;;;;;;;28.98;11.68;;;;;;;9.89;100.00;103082.78;5054923;28;20061;-75
2022/03/27 10:33:19;;;;;;;27.58;12.27;;;;;;;9.94;100.00;103077.25;5064139;28;20044;-75
2022/03/27 10:36:04;;;;;;;27.83;12.05;;;;;;;9.91;100.00;103080.09;5067073;28;20055;-74
2022/03/27 10:38:51;;;;;;;32.33;11.93;;;;;;;10.02;99.84;103079.47;5050209;28;20055;-73
2022/03/27 10:41:43;;;;;;;28.60;12.88;;;;;;;10.04;100.00;103070.59;5038398;28;20037;-75
2022/03/27 10:44:37;;;;;;;26.55;11.70;;;;;;;10.10;99.21;103067.63;5069313;28;20143;-76
2022/03/27 10:47:24;;;;;;;29.85;12.93;;;;;;;10.36;99.66;103070.59;5048783;28;20037;-73
2022/03/27 10:50:02;;;;;;;27.65;13.55;;;;;;;10.49;99.25;103078.56;5039062;28;20040;-75
2022/03/27 10:52:30;;;;;;;35.40;13.82;;;;;;;10.57;97.70;103072.88;5069361;28;20025;-75
2022/03/27 10:55:00;;;;;;;31.98;12.80;;;;;;;10.43;97.51;103076.31;5048231;28;20033;-75
2022/03/27 10:57:37;;;;;;;29.00;12.95;;;;;;;10.44;97.93;103078.84;5072741;28;20036;-75
2022/03/27 11:00:09;;;;;;;27.92;14.68;;;;;;;10.45;98.51;103072.69;5036637;28;20048;-73
2022/03/27 11:02:49;;;;;;;32.33;14.83;;;;;;;10.62;97.57;103071.66;5064456;28;20024;-75
2022/03/27 11:05:35;;;;;;;32.17;14.48;;;;;;;11.02;97.26;103076.34;5042921;28;20579;-75
2022/03/27 11:08:17;;;;;;;33.50;14.00;;;;;;;11.20;95.12;103071.75;5046330;28;20028;-75
2022/03/27 11:10:49;;;;;;;42.22;16.83;;;;;;;11.19;93.90;103067.44;5043627;28;20049;-73
2022/03/27 11:13:39;;;;;;;34.40;17.02;;;;;;;11.18;95.08;103071.84;5050741;28;20488;-76
2022/03/27 11:16:15;;;;;;;29.30;16.23;;;;;;;10.98;95.13;103056.44;5034683;28;20060;-76
2022/03/27 11:18:46;;;;;;;31.90;17.10;;;;;;;11.05;95.38;103050.72;5066781;28;20072;-75
2022/03/27 11:21:34;;;;;;;38.67;17.52;;;;;;;11.13;94.57;103058.13;5069473;28;20118;-75
2022/03/27 11:24:03;;;;;;;34.10;17.33;;;;;;;11.18;94.63;103061.34;5066525;28;20090;-75
2022/03/27 11:26:31;;;;;;;32.80;16.50;;;;;;;11.14;94.98;103051.97;5044279;28;20131;-75